Terminal Aerodrome Forecast
Issued by NWS

Home | Current Version | Previous Version | Text Only | Print | Product List | Glossary On
Versions: 1 2 3 4 5 6 7 8 9 10 11 12 13 14
000
FTAK31 PAJN 261729
TAFAJN
TAF
PAJN 261729Z 2618/2718 08008KT P6SM -RA FEW002 OVC035
      TEMPO 2618/2620 3SM BR SCT001
     FM262000 11008KT 5SM -RA SCT015 BKN025 OVC035
     FM270200 25005KT P6SM VCSH SCT025 OVC050
     FM270600 VRB03KT P6SM OVC025=

USA.gov is the U.S. government's official web portal to all federal, state and local government web resources and services.